sensor_id;sensor_type;location;lat;lon;timestamp;P1;durP1;ratioP1;P2;durP2;ratioP2
55455;SDS011;63021;52.836;6.376;2022-09-09T00:04:54;8.63;;;6.35;;
55455;SDS011;63021;52.836;6.376;2022-09-09T00:07:33;7.95;;;5.22;;
55455;SDS011;63021;52.836;6.376;2022-09-09T00:12:51;7.10;;;5.88;;
55455;SDS011;63021;52.836;6.376;2022-09-09T00:15:20;6.85;;;4.75;;
55455;SDS011;63021;52.836;6.376;2022-09-09T00:17:56;8.98;;;5.55;;
55455;SDS011;63021;52.836;6.376;2022-09-09T00:20:48;7.82;;;6.00;;
55455;SDS011;63021;52.836;6.376;2022-09-09T00:28:24;6.80;;;4.95;;
55455;SDS011;63021;52.836;6.376;2022-09-09T00:30:52;7.53;;;5.53;;
55455;SDS011;63021;52.836;6.376;2022-09-09T00:33:19;8.38;;;5.25;;
55455;SDS011;63021;52.836;6.376;2022-09-09T00:35:49;10.45;;;6.03;;
55455;SDS011;63021;52.836;6.376;2022-09-09T00:38:40;7.35;;;5.80;;
55455;SDS011;63021;52.836;6.376;2022-09-09T00:44:01;7.20;;;5.25;;
55455;SDS011;63021;52.836;6.376;2022-09-09T00:46:44;8.55;;;6.20;;
55455;SDS011;63021;52.836;6.376;2022-09-09T00:57:39;12.52;;;6.60;;
55455;SDS011;63021;52.836;6.376;2022-09-09T01:08:25;11.25;;;7.03;;
55455;SDS011;63021;52.836;6.376;2022-09-09T01:11:20;9.32;;;6.40;;
55455;SDS011;63021;52.836;6.376;2022-09-09T01:13:49;9.60;;;7.43;;
55455;SDS011;63021;52.836;6.376;2022-09-09T01:16:20;12.57;;;7.20;;
55455;SDS011;63021;52.836;6.376;2022-09-09T01:18:47;13.23;;;7.70;;
55455;SDS011;63021;52.836;6.376;2022-09-09T01:24:05;11.00;;;7.35;;
55455;SDS011;63021;52.836;6.376;2022-09-09T01:26:43;8.38;;;7.53;;
55455;SDS011;63021;52.836;6.376;2022-09-09T01:29:14;9.10;;;6.65;;
55455;SDS011;63021;52.836;6.376;2022-09-09T01:31:42;10.98;;;6.75;;
55455;SDS011;63021;52.836;6.376;2022-09-09T01:34:20;11.63;;;7.30;;
55455;SDS011;63021;52.836;6.376;2022-09-09T01:36:56;10.10;;;6.70;;
55455;SDS011;63021;52.836;6.376;2022-09-09T01:39:25;12.02;;;7.03;;
55455;SDS011;63021;52.836;6.376;2022-09-09T01:41:51;9.60;;;7.28;;
55455;SDS011;63021;52.836;6.376;2022-09-09T01:44:18;8.40;;;5.85;;
55455;SDS011;63021;52.836;6.376;2022-09-09T01:46:44;11.77;;;6.63;;
55455;SDS011;63021;52.836;6.376;2022-09-09T01:49:10;11.75;;;6.97;;
55455;SDS011;63021;52.836;6.376;2022-09-09T01:51:36;8.73;;;6.45;;
55455;SDS011;63021;52.836;6.376;2022-09-09T01:54:02;9.30;;;6.43;;
55455;SDS011;63021;52.836;6.376;2022-09-09T02:02:09;10.52;;;6.35;;
55455;SDS011;63021;52.836;6.376;2022-09-09T02:07:07;9.15;;;6.82;;
55455;SDS011;63021;52.836;6.376;2022-09-09T02:09:45;10.88;;;6.28;;
55455;SDS011;63021;52.836;6.376;2022-09-09T02:12:16;11.35;;;7.28;;
55455;SDS011;63021;52.836;6.376;2022-09-09T02:14:47;8.90;;;6.40;;
55455;SDS011;63021;52.836;6.376;2022-09-09T02:19:48;13.93;;;7.10;;
55455;SDS011;63021;52.836;6.376;2022-09-09T02:22:19;11.40;;;7.55;;
55455;SDS011;63021;52.836;6.376;2022-09-09T02:24:48;10.48;;;6.65;;
55455;SDS011;63021;52.836;6.376;2022-09-09T02:27:17;9.27;;;5.63;;
55455;SDS011;63021;52.836;6.376;2022-09-09T02:29:44;8.38;;;6.68;;
55455;SDS011;63021;52.836;6.376;2022-09-09T02:32:12;9.50;;;5.95;;
55455;SDS011;63021;52.836;6.376;2022-09-09T02:34:45;8.45;;;6.53;;
55455;SDS011;63021;52.836;6.376;2022-09-09T02:37:15;11.13;;;6.22;;
55455;SDS011;63021;52.836;6.376;2022-09-09T02:39:44;6.80;;;5.38;;
55455;SDS011;63021;52.836;6.376;2022-09-09T02:42:09;6.75;;;6.03;;
55455;SDS011;63021;52.836;6.376;2022-09-09T02:44:35;7.70;;;5.82;;
55455;SDS011;63021;52.836;6.376;2022-09-09T02:52:08;8.32;;;5.78;;
55455;SDS011;63021;52.836;6.376;2022-09-09T02:54:41;9.38;;;5.90;;
55455;SDS011;63021;52.836;6.376;2022-09-09T02:57:12;6.07;;;5.38;;
55455;SDS011;63021;52.836;6.376;2022-09-09T02:59:43;7.53;;;5.70;;
55455;SDS011;63021;52.836;6.376;2022-09-09T03:02:09;9.48;;;6.20;;
55455;SDS011;63021;52.836;6.376;2022-09-09T03:04:36;10.10;;;5.93;;
55455;SDS011;63021;52.836;6.376;2022-09-09T03:07:02;6.60;;;6.00;;
55455;SDS011;63021;52.836;6.376;2022-09-09T03:09:28;10.48;;;6.15;;
55455;SDS011;63021;52.836;6.376;2022-09-09T03:11:54;6.47;;;5.50;;
55455;SDS011;63021;52.836;6.376;2022-09-09T03:14:20;9.93;;;5.93;;
55455;SDS011;63021;52.836;6.376;2022-09-09T03:16:49;10.43;;;6.28;;
55455;SDS011;63021;52.836;6.376;2022-09-09T03:19:15;7.93;;;6.00;;
55455;SDS011;63021;52.836;6.376;2022-09-09T03:21:40;7.10;;;5.28;;
55455;SDS011;63021;52.836;6.376;2022-09-09T03:24:05;7.43;;;5.50;;
55455;SDS011;63021;52.836;6.376;2022-09-09T03:26:31;6.60;;;5.65;;
55455;SDS011;63021;52.836;6.376;2022-09-09T03:28:57;6.18;;;5.57;;
55455;SDS011;63021;52.836;6.376;2022-09-09T03:31:22;8.00;;;5.20;;
55455;SDS011;63021;52.836;6.376;2022-09-09T03:33:47;7.75;;;6.35;;
55455;SDS011;63021;52.836;6.376;2022-09-09T03:36:13;6.32;;;5.60;;
55455;SDS011;63021;52.836;6.376;2022-09-09T03:38:39;6.63;;;5.90;;
55455;SDS011;63021;52.836;6.376;2022-09-09T03:41:05;8.77;;;5.78;;
55455;SDS011;63021;52.836;6.376;2022-09-09T03:43:31;10.25;;;5.90;;
55455;SDS011;63021;52.836;6.376;2022-09-09T03:45:57;7.60;;;6.07;;
55455;SDS011;63021;52.836;6.376;2022-09-09T03:48:23;7.32;;;5.75;;
55455;SDS011;63021;52.836;6.376;2022-09-09T03:50:51;8.48;;;5.90;;
55455;SDS011;63021;52.836;6.376;2022-09-09T03:53:18;7.95;;;6.32;;
55455;SDS011;63021;52.836;6.376;2022-09-09T03:55:45;9.77;;;7.30;;
55455;SDS011;63021;52.836;6.376;2022-09-09T03:58:11;10.48;;;6.90;;
55455;SDS011;63021;52.836;6.376;2022-09-09T04:00:40;7.35;;;6.15;;
55455;SDS011;63021;52.836;6.376;2022-09-09T04:03:08;9.02;;;6.47;;
55455;SDS011;63021;52.836;6.376;2022-09-09T04:05:34;8.70;;;5.97;;
55455;SDS011;63021;52.836;6.376;2022-09-09T04:08:00;9.45;;;6.55;;
55455;SDS011;63021;52.836;6.376;2022-09-09T04:10:25;11.38;;;7.13;;
55455;SDS011;63021;52.836;6.376;2022-09-09T04:12:51;7.22;;;6.18;;
55455;SDS011;63021;52.836;6.376;2022-09-09T04:15:17;8.38;;;6.55;;
55455;SDS011;63021;52.836;6.376;2022-09-09T04:17:43;8.40;;;6.95;;
55455;SDS011;63021;52.836;6.376;2022-09-09T04:20:08;7.00;;;6.30;;
55455;SDS011;63021;52.836;6.376;2022-09-09T04:22:37;7.68;;;6.43;;
55455;SDS011;63021;52.836;6.376;2022-09-09T04:25:04;12.05;;;6.85;;
55455;SDS011;63021;52.836;6.376;2022-09-09T04:27:30;9.07;;;7.38;;
55455;SDS011;63021;52.836;6.376;2022-09-09T04:29:56;8.95;;;6.65;;
55455;SDS011;63021;52.836;6.376;2022-09-09T04:32:22;13.23;;;7.47;;
55455;SDS011;63021;52.836;6.376;2022-09-09T04:34:47;9.77;;;6.78;;
55455;SDS011;63021;52.836;6.376;2022-09-09T04:37:13;9.93;;;7.57;;
55455;SDS011;63021;52.836;6.376;2022-09-09T04:39:39;10.25;;;7.93;;
55455;SDS011;63021;52.836;6.376;2022-09-09T04:42:04;10.52;;;7.35;;
55455;SDS011;63021;52.836;6.376;2022-09-09T04:44:29;11.70;;;8.23;;
55455;SDS011;63021;52.836;6.376;2022-09-09T04:46:55;10.65;;;9.50;;
55455;SDS011;63021;52.836;6.376;2022-09-09T04:49:21;11.55;;;7.68;;
55455;SDS011;63021;52.836;6.376;2022-09-09T04:51:48;13.60;;;8.98;;
55455;SDS011;63021;52.836;6.376;2022-09-09T04:54:14;12.93;;;8.85;;
55455;SDS011;63021;52.836;6.376;2022-09-09T04:56:39;10.65;;;8.05;;
55455;SDS011;63021;52.836;6.376;2022-09-09T04:59:06;10.75;;;9.23;;
55455;SDS011;63021;52.836;6.376;2022-09-09T05:01:31;13.85;;;8.48;;
55455;SDS011;63021;52.836;6.376;2022-09-09T05:03:57;10.93;;;7.88;;
55455;SDS011;63021;52.836;6.376;2022-09-09T05:06:22;10.63;;;7.72;;
55455;SDS011;63021;52.836;6.376;2022-09-09T05:08:48;13.23;;;8.10;;
55455;SDS011;63021;52.836;6.376;2022-09-09T05:13:50;12.85;;;7.82;;
55455;SDS011;63021;52.836;6.376;2022-09-09T05:16:17;8.70;;;7.47;;
55455;SDS011;63021;52.836;6.376;2022-09-09T05:18:43;9.80;;;8.07;;
55455;SDS011;63021;52.836;6.376;2022-09-09T05:21:09;9.65;;;8.25;;
55455;SDS011;63021;52.836;6.376;2022-09-09T05:23:36;10.80;;;7.97;;
55455;SDS011;63021;52.836;6.376;2022-09-09T05:26:02;10.65;;;8.25;;
55455;SDS011;63021;52.836;6.376;2022-09-09T05:28:28;10.73;;;8.10;;
55455;SDS011;63021;52.836;6.376;2022-09-09T05:33:24;11.32;;;7.85;;
55455;SDS011;63021;52.836;6.376;2022-09-09T05:38:46;12.07;;;8.15;;
55455;SDS011;63021;52.836;6.376;2022-09-09T05:41:13;13.38;;;8.98;;
55455;SDS011;63021;52.836;6.376;2022-09-09T05:43:42;11.63;;;8.90;;
55455;SDS011;63021;52.836;6.376;2022-09-09T05:46:13;10.95;;;8.85;;
55455;SDS011;63021;52.836;6.376;2022-09-09T05:48:43;15.60;;;9.45;;
55455;SDS011;63021;52.836;6.376;2022-09-09T05:51:16;9.35;;;8.35;;
55455;SDS011;63021;52.836;6.376;2022-09-09T05:53:43;12.77;;;9.80;;
55455;SDS011;63021;52.836;6.376;2022-09-09T05:56:10;11.95;;;8.48;;
55455;SDS011;63021;52.836;6.376;2022-09-09T05:58:40;13.82;;;8.80;;
55455;SDS011;63021;52.836;6.376;2022-09-09T06:01:18;10.68;;;7.70;;
55455;SDS011;63021;52.836;6.376;2022-09-09T06:03:46;10.85;;;8.30;;
55455;SDS011;63021;52.836;6.376;2022-09-09T06:06:16;13.60;;;8.32;;
55455;SDS011;63021;52.836;6.376;2022-09-09T06:08:46;8.77;;;7.88;;
55455;SDS011;63021;52.836;6.376;2022-09-09T06:11:17;13.25;;;8.23;;
55455;SDS011;63021;52.836;6.376;2022-09-09T06:13:44;9.35;;;8.38;;
55455;SDS011;63021;52.836;6.376;2022-09-09T06:16:10;9.05;;;7.68;;
55455;SDS011;63021;52.836;6.376;2022-09-09T06:18:37;11.80;;;7.60;;
55455;SDS011;63021;52.836;6.376;2022-09-09T06:21:04;12.15;;;8.10;;
55455;SDS011;63021;52.836;6.376;2022-09-09T06:23:32;7.90;;;7.20;;
55455;SDS011;63021;52.836;6.376;2022-09-09T06:26:10;9.40;;;8.35;;
55455;SDS011;63021;52.836;6.376;2022-09-09T06:28:37;10.05;;;6.75;;
55455;SDS011;63021;52.836;6.376;2022-09-09T06:31:04;12.73;;;8.73;;
55455;SDS011;63021;52.836;6.376;2022-09-09T06:33:31;12.35;;;8.57;;
55455;SDS011;63021;52.836;6.376;2022-09-09T06:36:00;10.32;;;7.10;;
55455;SDS011;63021;52.836;6.376;2022-09-09T06:38:26;8.07;;;7.28;;
55455;SDS011;63021;52.836;6.376;2022-09-09T06:40:56;8.80;;;7.70;;
55455;SDS011;63021;52.836;6.376;2022-09-09T06:43:23;13.35;;;7.40;;
55455;SDS011;63021;52.836;6.376;2022-09-09T06:45:53;8.73;;;7.85;;
55455;SDS011;63021;52.836;6.376;2022-09-09T06:48:19;10.63;;;7.97;;
55455;SDS011;63021;52.836;6.376;2022-09-09T06:50:44;10.52;;;8.15;;
55455;SDS011;63021;52.836;6.376;2022-09-09T06:53:10;9.55;;;7.43;;
55455;SDS011;63021;52.836;6.376;2022-09-09T06:55:35;9.75;;;8.02;;
55455;SDS011;63021;52.836;6.376;2022-09-09T06:58:00;11.38;;;8.20;;
55455;SDS011;63021;52.836;6.376;2022-09-09T07:00:27;9.43;;;7.20;;
55455;SDS011;63021;52.836;6.376;2022-09-09T07:02:53;11.23;;;8.57;;
55455;SDS011;63021;52.836;6.376;2022-09-09T07:05:18;8.90;;;7.57;;
55455;SDS011;63021;52.836;6.376;2022-09-09T07:07:44;8.80;;;7.57;;
55455;SDS011;63021;52.836;6.376;2022-09-09T07:10:09;9.95;;;7.72;;
55455;SDS011;63021;52.836;6.376;2022-09-09T07:12:35;11.20;;;7.32;;
55455;SDS011;63021;52.836;6.376;2022-09-09T07:15:00;9.43;;;8.32;;
55455;SDS011;63021;52.836;6.376;2022-09-09T07:17:26;8.45;;;7.20;;
55455;SDS011;63021;52.836;6.376;2022-09-09T07:19:53;17.02;;;7.93;;
55455;SDS011;63021;52.836;6.376;2022-09-09T07:22:18;10.60;;;7.43;;
55455;SDS011;63021;52.836;6.376;2022-09-09T07:24:44;11.90;;;7.00;;
55455;SDS011;63021;52.836;6.376;2022-09-09T07:27:10;13.80;;;6.43;;
55455;SDS011;63021;52.836;6.376;2022-09-09T07:29:35;11.23;;;7.25;;
55455;SDS011;63021;52.836;6.376;2022-09-09T07:32:00;7.18;;;6.47;;
55455;SDS011;63021;52.836;6.376;2022-09-09T07:34:27;9.27;;;7.20;;
55455;SDS011;63021;52.836;6.376;2022-09-09T07:36:52;10.38;;;7.10;;
55455;SDS011;63021;52.836;6.376;2022-09-09T07:39:18;10.70;;;6.40;;
55455;SDS011;63021;52.836;6.376;2022-09-09T07:41:44;10.82;;;6.47;;
55455;SDS011;63021;52.836;6.376;2022-09-09T07:44:15;10.18;;;7.38;;
55455;SDS011;63021;52.836;6.376;2022-09-09T07:46:43;9.55;;;6.40;;
55455;SDS011;63021;52.836;6.376;2022-09-09T07:49:10;12.00;;;6.95;;
55455;SDS011;63021;52.836;6.376;2022-09-09T07:51:37;10.02;;;7.28;;
55455;SDS011;63021;52.836;6.376;2022-09-09T07:54:05;8.60;;;6.75;;
55455;SDS011;63021;52.836;6.376;2022-09-09T07:56:32;7.38;;;6.15;;
55455;SDS011;63021;52.836;6.376;2022-09-09T07:58:58;9.65;;;6.13;;
55455;SDS011;63021;52.836;6.376;2022-09-09T08:01:31;7.72;;;5.45;;
55455;SDS011;63021;52.836;6.376;2022-09-09T08:03:59;9.32;;;6.15;;
55455;SDS011;63021;52.836;6.376;2022-09-09T08:06:26;7.60;;;6.30;;
55455;SDS011;63021;52.836;6.376;2022-09-09T08:08:54;11.48;;;5.18;;
55455;SDS011;63021;52.836;6.376;2022-09-09T08:11:20;14.23;;;6.15;;
55455;SDS011;63021;52.836;6.376;2022-09-09T08:13:48;11.70;;;5.38;;
55455;SDS011;63021;52.836;6.376;2022-09-09T08:16:16;6.97;;;5.88;;
55455;SDS011;63021;52.836;6.376;2022-09-09T08:18:46;9.90;;;5.40;;
55455;SDS011;63021;52.836;6.376;2022-09-09T08:21:14;10.73;;;5.93;;
55455;SDS011;63021;52.836;6.376;2022-09-09T08:23:44;9.00;;;4.95;;
55455;SDS011;63021;52.836;6.376;2022-09-09T08:26:13;10.80;;;4.90;;
55455;SDS011;63021;52.836;6.376;2022-09-09T08:28:47;8.25;;;4.93;;
55455;SDS011;63021;52.836;6.376;2022-09-09T08:31:25;11.38;;;4.75;;
55455;SDS011;63021;52.836;6.376;2022-09-09T08:33:55;13.85;;;5.47;;
55455;SDS011;63021;52.836;6.376;2022-09-09T08:36:23;10.95;;;4.63;;
55455;SDS011;63021;52.836;6.376;2022-09-09T08:38:51;9.20;;;4.18;;
55455;SDS011;63021;52.836;6.376;2022-09-09T08:44:16;9.88;;;5.75;;
55455;SDS011;63021;52.836;6.376;2022-09-09T08:57:49;8.88;;;4.00;;
55455;SDS011;63021;52.836;6.376;2022-09-09T09:00:17;7.72;;;4.38;;
55455;SDS011;63021;52.836;6.376;2022-09-09T09:02:46;9.93;;;4.68;;
55455;SDS011;63021;52.836;6.376;2022-09-09T09:11:00;8.55;;;3.75;;
55455;SDS011;63021;52.836;6.376;2022-09-09T09:18:57;7.88;;;3.70;;
55455;SDS011;63021;52.836;6.376;2022-09-09T09:21:29;8.95;;;3.53;;
55455;SDS011;63021;52.836;6.376;2022-09-09T09:24:05;9.00;;;3.40;;
55455;SDS011;63021;52.836;6.376;2022-09-09T09:26:40;15.32;;;4.55;;
55455;SDS011;63021;52.836;6.376;2022-09-09T09:29:15;8.80;;;3.50;;
55455;SDS011;63021;52.836;6.376;2022-09-09T09:31:50;9.35;;;3.60;;
55455;SDS011;63021;52.836;6.376;2022-09-09T09:34:21;9.45;;;4.38;;
55455;SDS011;63021;52.836;6.376;2022-09-09T09:36:57;7.10;;;2.50;;
55455;SDS011;63021;52.836;6.376;2022-09-09T09:39:32;9.63;;;3.45;;
55455;SDS011;63021;52.836;6.376;2022-09-09T09:44:39;8.70;;;3.83;;
55455;SDS011;63021;52.836;6.376;2022-09-09T09:47:10;8.27;;;3.13;;
55455;SDS011;63021;52.836;6.376;2022-09-09T09:49:38;8.90;;;2.65;;
55455;SDS011;63021;52.836;6.376;2022-09-09T09:52:04;9.77;;;3.30;;
55455;SDS011;63021;52.836;6.376;2022-09-09T09:54:37;5.88;;;2.88;;
55455;SDS011;63021;52.836;6.376;2022-09-09T09:57:14;6.93;;;3.33;;
55455;SDS011;63021;52.836;6.376;2022-09-09T09:59:41;9.52;;;2.60;;
55455;SDS011;63021;52.836;6.376;2022-09-09T10:02:14;10.75;;;2.47;;
55455;SDS011;63021;52.836;6.376;2022-09-09T10:04:40;9.10;;;3.08;;
55455;SDS011;63021;52.836;6.376;2022-09-09T10:07:19;8.35;;;2.80;;
55455;SDS011;63021;52.836;6.376;2022-09-09T10:09:48;10.75;;;3.40;;
55455;SDS011;63021;52.836;6.376;2022-09-09T10:31:41;6.70;;;2.53;;
55455;SDS011;63021;52.836;6.376;2022-09-09T10:37:29;7.90;;;3.33;;
55455;SDS011;63021;52.836;6.376;2022-09-09T10:40:20;7.70;;;2.20;;
55455;SDS011;63021;52.836;6.376;2022-09-09T10:46:12;8.80;;;2.05;;
55455;SDS011;63021;52.836;6.376;2022-09-09T10:51:21;7.75;;;2.65;;
55455;SDS011;63021;52.836;6.376;2022-09-09T10:56:44;8.65;;;2.50;;
55455;SDS011;63021;52.836;6.376;2022-09-09T10:59:20;9.32;;;2.42;;
55455;SDS011;63021;52.836;6.376;2022-09-09T11:01:51;12.93;;;3.30;;
55455;SDS011;63021;52.836;6.376;2022-09-09T11:04:56;7.85;;;2.72;;
55455;SDS011;63021;52.836;6.376;2022-09-09T11:10:57;10.20;;;3.63;;
55455;SDS011;63021;52.836;6.376;2022-09-09T11:13:14;5.78;;;2.08;;
55455;SDS011;63021;52.836;6.376;2022-09-09T11:15:45;6.85;;;2.13;;
55455;SDS011;63021;52.836;6.376;2022-09-09T11:18:21;7.90;;;2.95;;
55455;SDS011;63021;52.836;6.376;2022-09-09T11:20:49;8.18;;;2.53;;
55455;SDS011;63021;52.836;6.376;2022-09-09T11:23:22;7.82;;;2.33;;
55455;SDS011;63021;52.836;6.376;2022-09-09T11:25:56;10.13;;;2.28;;
55455;SDS011;63021;52.836;6.376;2022-09-09T11:34:03;4.80;;;1.63;;
55455;SDS011;63021;52.836;6.376;2022-09-09T11:42:16;8.55;;;2.28;;
55455;SDS011;63021;52.836;6.376;2022-09-09T11:44:44;7.25;;;1.77;;
55455;SDS011;63021;52.836;6.376;2022-09-09T11:49:55;9.82;;;2.42;;
55455;SDS011;63021;52.836;6.376;2022-09-09T11:52:44;4.53;;;1.83;;
55455;SDS011;63021;52.836;6.376;2022-09-09T11:57:57;7.30;;;2.03;;
55455;SDS011;63021;52.836;6.376;2022-09-09T12:00:48;6.40;;;1.85;;
55455;SDS011;63021;52.836;6.376;2022-09-09T12:05:58;5.72;;;1.70;;
55455;SDS011;63021;52.836;6.376;2022-09-09T12:08:28;7.32;;;1.83;;
55455;SDS011;63021;52.836;6.376;2022-09-09T12:10:57;5.72;;;2.10;;
55455;SDS011;63021;52.836;6.376;2022-09-09T12:13:28;5.45;;;1.80;;
55455;SDS011;63021;52.836;6.376;2022-09-09T12:15:57;5.45;;;1.60;;
55455;SDS011;63021;52.836;6.376;2022-09-09T12:18:34;9.57;;;1.67;;
55455;SDS011;63021;52.836;6.376;2022-09-09T12:23:46;5.45;;;1.70;;
55455;SDS011;63021;52.836;6.376;2022-09-09T12:26:24;5.15;;;1.67;;
55455;SDS011;63021;52.836;6.376;2022-09-09T12:29:04;5.00;;;2.23;;
55455;SDS011;63021;52.836;6.376;2022-09-09T12:35:03;6.13;;;1.65;;
55455;SDS011;63021;52.836;6.376;2022-09-09T12:37:42;5.57;;;1.52;;
55455;SDS011;63021;52.836;6.376;2022-09-09T12:40:22;7.28;;;2.05;;
55455;SDS011;63021;52.836;6.376;2022-09-09T12:42:48;4.87;;;1.50;;
55455;SDS011;63021;52.836;6.376;2022-09-09T12:45:21;5.80;;;1.63;;
55455;SDS011;63021;52.836;6.376;2022-09-09T12:48:05;7.85;;;1.80;;
55455;SDS011;63021;52.836;6.376;2022-09-09T12:50:34;7.18;;;2.45;;
55455;SDS011;63021;52.836;6.376;2022-09-09T12:53:10;5.47;;;1.98;;
55455;SDS011;63021;52.836;6.376;2022-09-09T12:55:58;6.63;;;2.30;;
55455;SDS011;63021;52.836;6.376;2022-09-09T12:58:26;3.47;;;1.58;;
55455;SDS011;63021;52.836;6.376;2022-09-09T13:00:57;6.78;;;2.05;;
55455;SDS011;63021;52.836;6.376;2022-09-09T13:03:23;8.40;;;2.15;;
55455;SDS011;63021;52.836;6.376;2022-09-09T13:05:50;5.97;;;1.90;;
55455;SDS011;63021;52.836;6.376;2022-09-09T13:08:16;3.92;;;1.33;;
55455;SDS011;63021;52.836;6.376;2022-09-09T13:10:55;2.85;;;1.42;;
55455;SDS011;63021;52.836;6.376;2022-09-09T13:13:28;8.07;;;2.13;;
55455;SDS011;63021;52.836;6.376;2022-09-09T13:15:59;3.60;;;1.38;;
55455;SDS011;63021;52.836;6.376;2022-09-09T13:18:29;4.38;;;1.73;;
55455;SDS011;63021;52.836;6.376;2022-09-09T13:20:58;6.53;;;1.85;;
55455;SDS011;63021;52.836;6.376;2022-09-09T13:23:26;3.20;;;1.30;;
55455;SDS011;63021;52.836;6.376;2022-09-09T13:28:51;7.28;;;1.38;;
55455;SDS011;63021;52.836;6.376;2022-09-09T13:31:21;5.75;;;1.52;;
55455;SDS011;63021;52.836;6.376;2022-09-09T13:33:54;4.65;;;1.73;;
55455;SDS011;63021;52.836;6.376;2022-09-09T13:36:30;3.53;;;1.40;;
55455;SDS011;63021;52.836;6.376;2022-09-09T13:38:58;3.40;;;1.15;;
55455;SDS011;63021;52.836;6.376;2022-09-09T13:41:29;1.52;;;0.90;;
55455;SDS011;63021;52.836;6.376;2022-09-09T13:43:58;6.55;;;1.40;;
55455;SDS011;63021;52.836;6.376;2022-09-09T13:48:59;4.13;;;1.20;;
55455;SDS011;63021;52.836;6.376;2022-09-09T13:51:33;6.93;;;1.10;;
55455;SDS011;63021;52.836;6.376;2022-09-09T13:54:09;3.70;;;1.55;;
55455;SDS011;63021;52.836;6.376;2022-09-09T13:56:36;2.90;;;0.98;;
55455;SDS011;63021;52.836;6.376;2022-09-09T13:59:04;1.30;;;1.05;;
55455;SDS011;63021;52.836;6.376;2022-09-09T14:01:31;2.97;;;1.27;;
55455;SDS011;63021;52.836;6.376;2022-09-09T14:03:58;2.05;;;1.00;;
55455;SDS011;63021;52.836;6.376;2022-09-09T14:06:23;3.20;;;1.23;;
55455;SDS011;63021;52.836;6.376;2022-09-09T14:08:49;2.63;;;1.08;;
55455;SDS011;63021;52.836;6.376;2022-09-09T14:11:16;2.75;;;1.30;;
55455;SDS011;63021;52.836;6.376;2022-09-09T14:13:42;5.07;;;1.85;;
55455;SDS011;63021;52.836;6.376;2022-09-09T14:16:07;4.63;;;1.45;;
55455;SDS011;63021;52.836;6.376;2022-09-09T14:18:32;3.95;;;1.02;;
55455;SDS011;63021;52.836;6.376;2022-09-09T14:20:58;4.78;;;1.30;;
55455;SDS011;63021;52.836;6.376;2022-09-09T14:23:24;2.00;;;0.90;;
55455;SDS011;63021;52.836;6.376;2022-09-09T14:25:51;5.10;;;1.30;;
55455;SDS011;63021;52.836;6.376;2022-09-09T14:28:16;4.80;;;1.10;;
55455;SDS011;63021;52.836;6.376;2022-09-09T14:30:42;1.63;;;0.70;;
55455;SDS011;63021;52.836;6.376;2022-09-09T14:33:10;2.63;;;1.10;;
55455;SDS011;63021;52.836;6.376;2022-09-09T14:35:37;2.20;;;0.60;;
55455;SDS011;63021;52.836;6.376;2022-09-09T14:38:03;4.15;;;1.10;;
55455;SDS011;63021;52.836;6.376;2022-09-09T14:40:29;4.20;;;1.65;;
55455;SDS011;63021;52.836;6.376;2022-09-09T14:42:55;3.92;;;1.00;;
55455;SDS011;63021;52.836;6.376;2022-09-09T14:45:21;2.58;;;0.93;;
55455;SDS011;63021;52.836;6.376;2022-09-09T14:47:50;3.22;;;0.80;;
55455;SDS011;63021;52.836;6.376;2022-09-09T14:50:16;1.70;;;1.05;;
55455;SDS011;63021;52.836;6.376;2022-09-09T14:52:42;2.50;;;0.90;;
55455;SDS011;63021;52.836;6.376;2022-09-09T14:55:08;3.03;;;0.80;;
55455;SDS011;63021;52.836;6.376;2022-09-09T14:57:33;4.93;;;1.27;;
55455;SDS011;63021;52.836;6.376;2022-09-09T15:00:00;2.67;;;0.85;;
55455;SDS011;63021;52.836;6.376;2022-09-09T15:02:26;2.15;;;1.05;;
55455;SDS011;63021;52.836;6.376;2022-09-09T15:04:52;1.75;;;0.85;;
55455;SDS011;63021;52.836;6.376;2022-09-09T15:07:18;3.35;;;1.10;;
55455;SDS011;63021;52.836;6.376;2022-09-09T15:09:44;6.80;;;1.10;;
55455;SDS011;63021;52.836;6.376;2022-09-09T15:12:12;3.53;;;1.13;;
55455;SDS011;63021;52.836;6.376;2022-09-09T15:14:38;3.67;;;1.02;;
55455;SDS011;63021;52.836;6.376;2022-09-09T15:17:04;3.22;;;1.15;;
55455;SDS011;63021;52.836;6.376;2022-09-09T15:19:29;1.60;;;1.15;;
55455;SDS011;63021;52.836;6.376;2022-09-09T15:21:55;3.42;;;1.30;;
55455;SDS011;63021;52.836;6.376;2022-09-09T15:24:20;6.00;;;1.58;;
55455;SDS011;63021;52.836;6.376;2022-09-09T15:26:46;4.05;;;0.80;;
55455;SDS011;63021;52.836;6.376;2022-09-09T15:29:11;3.45;;;0.90;;
55455;SDS011;63021;52.836;6.376;2022-09-09T15:31:37;5.00;;;1.08;;
55455;SDS011;63021;52.836;6.376;2022-09-09T15:34:03;2.60;;;1.17;;
55455;SDS011;63021;52.836;6.376;2022-09-09T15:36:37;5.40;;;1.40;;
55455;SDS011;63021;52.836;6.376;2022-09-09T15:39:05;5.20;;;1.30;;
55455;SDS011;63021;52.836;6.376;2022-09-09T15:41:32;2.92;;;1.35;;
55455;SDS011;63021;52.836;6.376;2022-09-09T15:43:58;1.27;;;1.02;;
55455;SDS011;63021;52.836;6.376;2022-09-09T15:48:56;5.13;;;1.35;;
55455;SDS011;63021;52.836;6.376;2022-09-09T15:51:23;8.27;;;2.50;;
55455;SDS011;63021;52.836;6.376;2022-09-09T15:53:57;2.38;;;1.15;;
55455;SDS011;63021;52.836;6.376;2022-09-09T15:56:23;5.25;;;1.30;;
55455;SDS011;63021;52.836;6.376;2022-09-09T15:58:50;2.17;;;1.50;;
55455;SDS011;63021;52.836;6.376;2022-09-09T16:01:16;3.88;;;1.42;;
55455;SDS011;63021;52.836;6.376;2022-09-09T16:03:44;4.53;;;1.77;;
55455;SDS011;63021;52.836;6.376;2022-09-09T16:06:14;2.80;;;1.23;;
55455;SDS011;63021;52.836;6.376;2022-09-09T16:08:41;3.13;;;1.30;;
55455;SDS011;63021;52.836;6.376;2022-09-09T16:11:09;5.97;;;1.95;;
55455;SDS011;63021;52.836;6.376;2022-09-09T16:16:12;3.03;;;1.45;;
55455;SDS011;63021;52.836;6.376;2022-09-09T16:18:40;7.35;;;3.03;;
55455;SDS011;63021;52.836;6.376;2022-09-09T16:21:20;6.85;;;1.70;;
55455;SDS011;63021;52.836;6.376;2022-09-09T16:23:48;4.82;;;1.80;;
55455;SDS011;63021;52.836;6.376;2022-09-09T16:26:15;4.20;;;1.60;;
55455;SDS011;63021;52.836;6.376;2022-09-09T16:28:41;3.45;;;1.75;;
55455;SDS011;63021;52.836;6.376;2022-09-09T16:31:07;2.83;;;1.70;;
55455;SDS011;63021;52.836;6.376;2022-09-09T16:33:35;2.22;;;1.60;;
55455;SDS011;63021;52.836;6.376;2022-09-09T16:36:08;2.88;;;1.60;;
55455;SDS011;63021;52.836;6.376;2022-09-09T16:38:38;3.05;;;1.80;;
55455;SDS011;63021;52.836;6.376;2022-09-09T16:41:04;3.00;;;1.77;;
55455;SDS011;63021;52.836;6.376;2022-09-09T16:43:34;6.18;;;2.33;;
55455;SDS011;63021;52.836;6.376;2022-09-09T16:46:01;5.22;;;1.50;;
55455;SDS011;63021;52.836;6.376;2022-09-09T16:48:31;2.67;;;1.60;;
55455;SDS011;63021;52.836;6.376;2022-09-09T16:51:01;1.55;;;1.45;;
55455;SDS011;63021;52.836;6.376;2022-09-09T16:53:36;3.70;;;2.20;;
55455;SDS011;63021;52.836;6.376;2022-09-09T16:56:05;3.25;;;1.75;;
55455;SDS011;63021;52.836;6.376;2022-09-09T16:58:31;5.30;;;2.53;;
55455;SDS011;63021;52.836;6.376;2022-09-09T17:00:57;9.05;;;2.20;;
55455;SDS011;63021;52.836;6.376;2022-09-09T17:03:23;1.98;;;1.50;;
55455;SDS011;63021;52.836;6.376;2022-09-09T17:05:49;5.30;;;1.67;;
55455;SDS011;63021;52.836;6.376;2022-09-09T17:08:14;4.97;;;2.30;;
55455;SDS011;63021;52.836;6.376;2022-09-09T17:10:40;6.55;;;2.03;;
55455;SDS011;63021;52.836;6.376;2022-09-09T17:13:07;4.55;;;2.80;;
55455;SDS011;63021;52.836;6.376;2022-09-09T17:15:32;2.42;;;1.42;;
55455;SDS011;63021;52.836;6.376;2022-09-09T17:17:59;4.93;;;1.80;;
55455;SDS011;63021;52.836;6.376;2022-09-09T17:20:24;5.15;;;1.80;;
55455;SDS011;63021;52.836;6.376;2022-09-09T17:22:50;3.75;;;2.25;;
55455;SDS011;63021;52.836;6.376;2022-09-09T17:25:15;5.22;;;2.25;;
55455;SDS011;63021;52.836;6.376;2022-09-09T17:27:42;5.85;;;2.42;;
55455;SDS011;63021;52.836;6.376;2022-09-09T17:30:08;4.32;;;1.90;;